createdAt,value
2018-05-26T00:02:05.379Z,75.30
2018-05-26T00:04:33.718Z,75.20
2018-05-26T00:07:02.097Z,74.70
2018-05-26T00:09:30.427Z,74.90
2018-05-26T00:11:58.902Z,74.70
2018-05-26T00:14:27.404Z,74.90
2018-05-26T00:16:55.747Z,75.40
2018-05-26T00:19:24.087Z,75.60
2018-05-26T00:21:52.440Z,75.70
2018-05-26T00:24:21.573Z,77.20
2018-05-26T00:26:49.954Z,76.50
2018-05-26T00:29:18.348Z,76.60
2018-05-26T00:31:46.695Z,77.70
2018-05-26T00:34:15.803Z,77.10
2018-05-26T00:36:44.142Z,77.10
2018-05-26T00:39:12.493Z,76.80
2018-05-26T00:41:40.823Z,76.70
2018-05-26T00:44:09.934Z,76.90
2018-05-26T00:46:38.278Z,76.90
2018-05-26T00:49:06.693Z,77.10
2018-05-26T00:51:35.029Z,77.90
2018-05-26T00:54:03.489Z,78.10
2018-05-26T00:56:31.831Z,78.40
2018-05-26T00:59:00.218Z,78.80
2018-05-26T01:01:28.603Z,78.80
2018-05-26T01:03:56.929Z,79.40
2018-05-26T01:06:25.358Z,79.60
2018-05-26T01:08:53.735Z,79.90
2018-05-26T01:11:23.113Z,79.70
2018-05-26T01:13:52.209Z,80.40
2018-05-26T01:16:21.437Z,80.50
2018-05-26T01:18:49.813Z,80.50
2018-05-26T01:21:18.156Z,80.70
2018-05-26T01:23:47.298Z,81.30
2018-05-26T01:26:15.634Z,80.90
2018-05-26T01:28:44.773Z,81.70
2018-05-26T01:31:13.136Z,81.70
2018-05-26T01:33:41.517Z,81.60
2018-05-26T01:36:09.860Z,82.00
2018-05-26T01:38:38.977Z,83.10
2018-05-26T01:41:08.091Z,83.60
2018-05-26T01:43:36.561Z,83.50
2018-05-26T01:46:04.950Z,84.10
2018-05-26T01:48:33.290Z,84.70
2018-05-26T01:51:01.793Z,85.10
2018-05-26T01:53:30.914Z,85.90
2018-05-26T01:55:59.496Z,85.90
2018-05-26T01:58:27.836Z,86.40
2018-05-26T02:00:56.939Z,87.70
2018-05-26T02:03:26.086Z,88.20
2018-05-26T02:05:54.393Z,88.10
2018-05-26T02:08:22.746Z,88.20
2018-05-26T02:10:51.163Z,89.00
2018-05-26T02:13:19.574Z,89.70
2018-05-26T02:15:47.911Z,90.10
2018-05-26T02:18:16.243Z,90.30
2018-05-26T02:20:44.658Z,90.50
2018-05-26T02:23:12.997Z,90.60
2018-05-26T02:25:41.479Z,90.90
2018-05-26T02:28:09.823Z,91.30
2018-05-26T02:30:39.908Z,92.80
2018-05-26T02:33:08.265Z,92.30
2018-05-26T02:35:36.611Z,92.50
2018-05-26T02:38:05.729Z,93.00
2018-05-26T02:40:34.091Z,93.00
2018-05-26T02:43:03.202Z,93.50
2018-05-26T02:45:31.534Z,93.50
2018-05-26T02:48:00.747Z,93.70
2018-05-26T02:50:29.070Z,93.90
2018-05-26T02:52:57.410Z,93.90
2018-05-26T02:55:26.527Z,94.30
2018-05-26T02:57:54.927Z,94.30
2018-05-26T03:00:23.400Z,94.80
2018-05-26T03:02:51.750Z,94.80
2018-05-26T03:05:26.709Z,95.30
2018-05-26T03:08:00.707Z,95.20
2018-05-26T03:10:35.622Z,95.40
2018-05-26T03:13:09.755Z,95.60
2018-05-26T03:15:38.189Z,95.80
2018-05-26T03:18:06.546Z,96.00
2018-05-26T03:20:34.862Z,96.00
2018-05-26T03:23:03.244Z,96.20
2018-05-26T03:25:31.587Z,96.10
2018-05-26T03:27:59.913Z,96.40
2018-05-26T03:30:29.037Z,96.90
2018-05-26T03:32:57.443Z,96.90
2018-05-26T03:35:25.849Z,97.00
2018-05-26T03:37:54.269Z,96.90
2018-05-26T03:40:22.646Z,97.10
2018-05-26T03:42:51.167Z,97.20
2018-05-26T03:45:19.505Z,97.30
2018-05-26T03:47:47.842Z,97.40
2018-05-26T03:50:16.199Z,97.40
2018-05-26T03:52:44.535Z,97.30
2018-05-26T03:58:25.487Z,97.40
2018-05-26T04:00:53.937Z,97.50
2018-05-26T04:03:22.290Z,97.70
2018-05-26T04:05:51.433Z,98.30
2018-05-26T04:08:20.494Z,98.20
2018-05-26T04:10:48.942Z,98.20
2018-05-26T04:13:17.371Z,98.20
2018-05-26T04:15:45.713Z,98.00
2018-05-26T04:18:14.039Z,98.00
2018-05-26T04:20:42.374Z,98.10
2018-05-26T04:23:11.703Z,98.10
2018-05-26T04:25:40.081Z,98.10
2018-05-26T04:28:08.459Z,98.00
2018-05-26T04:30:36.811Z,97.80
2018-05-26T04:33:05.936Z,97.90
2018-05-26T04:35:34.264Z,97.80
2018-05-26T04:38:02.697Z,97.90
2018-05-26T04:40:31.294Z,97.80
2018-05-26T04:42:59.618Z,98.00
2018-05-26T04:45:27.967Z,97.90
2018-05-26T04:47:56.294Z,97.80
2018-05-26T04:50:24.638Z,97.90
2018-05-26T04:52:52.973Z,97.90
2018-05-26T04:55:21.321Z,97.70
2018-05-26T04:57:50.413Z,97.30
2018-05-26T05:00:19.529Z,97.20
2018-05-26T05:02:47.870Z,97.20
2018-05-26T05:05:16.267Z,97.10
2018-05-26T05:07:45.374Z,96.50
2018-05-26T05:10:14.490Z,96.50
2018-05-26T05:12:42.862Z,96.50
2018-05-26T05:15:12.700Z,96.30
2018-05-26T05:17:41.038Z,96.20
2018-05-26T05:20:10.279Z,95.90
2018-05-26T05:22:38.621Z,95.90
2018-05-26T05:25:06.958Z,96.20
2018-05-26T05:27:35.460Z,96.30
2018-05-26T05:30:03.896Z,95.80
2018-05-26T05:32:32.314Z,95.70
2018-05-26T05:35:00.927Z,95.30
2018-05-26T05:37:30.168Z,94.70
2018-05-26T05:39:58.536Z,95.00
2018-05-26T05:42:26.913Z,95.40
2018-05-26T05:44:55.454Z,95.20
2018-05-26T05:47:23.813Z,94.40
2018-05-26T05:49:52.160Z,93.80
2018-05-26T05:52:20.515Z,93.60
2018-05-26T05:54:48.858Z,93.20
2018-05-26T05:57:17.211Z,92.70
2018-05-26T05:59:45.637Z,92.40
2018-05-26T06:02:14.820Z,92.20
2018-05-26T06:04:43.151Z,92.20
2018-05-26T06:07:11.506Z,91.70
2018-05-26T06:09:39.865Z,91.30
2018-05-26T06:12:09.031Z,91.40
2018-05-26T06:14:37.494Z,91.40
2018-05-26T06:17:05.819Z,91.10
2018-05-26T06:19:34.945Z,90.90
2018-05-26T06:22:03.330Z,90.80
2018-05-26T06:24:31.705Z,90.80
2018-05-26T06:27:00.081Z,90.80
2018-05-26T06:29:28.438Z,90.20
2018-05-26T06:31:57.561Z,89.30
2018-05-26T06:34:25.897Z,89.20
2018-05-26T06:36:54.247Z,90.20
2018-05-26T06:39:22.755Z,90.00
2018-05-26T06:41:51.090Z,90.40
2018-05-26T06:44:19.424Z,90.40
2018-05-26T06:46:47.848Z,90.30
2018-05-26T06:49:16.342Z,90.20
2018-05-26T06:51:44.682Z,89.30
2018-05-26T06:54:13.787Z,88.60
2018-05-26T06:56:42.181Z,88.60
2018-05-26T06:59:10.599Z,88.20
2018-05-26T07:01:38.948Z,88.20
2018-05-26T07:04:07.546Z,88.10
2018-05-26T07:06:35.886Z,87.60
2018-05-26T07:09:04.263Z,86.90
2018-05-26T07:11:32.612Z,86.70
2018-05-26T07:14:01.038Z,86.60
2018-05-26T07:16:29.418Z,85.90
2018-05-26T07:18:57.822Z,84.80
2018-05-26T07:21:26.390Z,85.00
2018-05-26T07:23:54.722Z,85.70
2018-05-26T07:26:23.850Z,86.30
2018-05-26T07:28:52.244Z,85.70
2018-05-26T07:31:20.743Z,85.20
2018-05-26T07:33:49.146Z,85.80
2018-05-26T07:36:17.586Z,86.10
2018-05-26T07:38:45.942Z,85.90
2018-05-26T07:41:14.354Z,84.80
2018-05-26T07:43:42.698Z,84.20
2018-05-26T07:46:11.182Z,84.30
2018-05-26T07:48:40.288Z,83.60
2018-05-26T07:51:10.372Z,83.60
2018-05-26T07:53:38.726Z,82.60
2018-05-26T07:56:07.102Z,82.80
2018-05-26T07:58:35.469Z,82.40
2018-05-26T08:01:04.548Z,81.10
2018-05-26T08:03:33.736Z,81.10
2018-05-26T08:06:02.075Z,81.40
2018-05-26T08:08:30.427Z,80.10
2018-05-26T08:10:58.813Z,80.10
2018-05-26T08:13:27.115Z,79.90
2018-05-26T08:15:55.461Z,80.40
2018-05-26T08:18:23.794Z,79.70
2018-05-26T08:20:52.193Z,80.50
2018-05-26T08:23:20.656Z,80.20
2018-05-26T08:25:49.996Z,80.70
2018-05-26T08:28:18.422Z,80.60
2018-05-26T08:30:46.761Z,79.80
2018-05-26T08:33:15.236Z,79.20
2018-05-26T08:35:44.280Z,79.50
2018-05-26T08:38:13.388Z,78.00
2018-05-26T08:40:42.487Z,77.70
2018-05-26T08:43:11.719Z,77.80
2018-05-26T08:45:40.087Z,77.80
2018-05-26T08:48:08.474Z,77.50
2018-05-26T08:50:36.802Z,76.60
2018-05-26T08:53:05.151Z,76.50
2018-05-26T08:55:33.501Z,76.40
2018-05-26T08:58:01.879Z,77.70
2018-05-26T09:00:30.285Z,77.40
2018-05-26T09:02:58.896Z,75.50
2018-05-26T09:05:27.235Z,75.50
2018-05-26T09:07:55.573Z,75.70
2018-05-26T09:10:24.722Z,75.20
2018-05-26T09:12:53.073Z,75.20
2018-05-26T09:15:21.411Z,73.30
2018-05-26T09:17:49.887Z,74.10
2018-05-26T09:20:18.270Z,73.20
2018-05-26T09:22:46.612Z,72.20
2018-05-26T09:25:15.000Z,74.10
2018-05-26T09:27:44.092Z,70.30
2018-05-26T09:30:12.484Z,70.30
2018-05-26T09:32:40.831Z,68.10
2018-05-26T09:35:09.198Z,68.40
2018-05-26T09:37:37.603Z,67.30
2018-05-26T09:40:06.093Z,66.30
2018-05-26T09:42:35.233Z,66.50
2018-05-26T09:45:03.566Z,66.40
2018-05-26T09:47:31.930Z,66.40
2018-05-26T09:50:00.341Z,70.50
2018-05-26T09:52:28.796Z,71.50
2018-05-26T09:54:57.914Z,68.70
2018-05-26T09:57:26.276Z,68.60
2018-05-26T09:59:54.647Z,67.70
2018-05-26T10:02:23.001Z,67.30
2018-05-26T10:04:52.104Z,65.90
2018-05-26T10:07:20.475Z,65.70
2018-05-26T10:09:49.568Z,60.60
2018-05-26T10:12:18.751Z,60.40
2018-05-26T10:14:47.278Z,60.40
2018-05-26T10:17:15.611Z,62.30
2018-05-26T10:19:43.981Z,59.50
2018-05-26T10:22:12.746Z,58.70
2018-05-26T10:24:41.098Z,62.50
2018-05-26T10:27:09.458Z,60.10
2018-05-26T10:29:38.585Z,58.70
2018-05-26T10:32:07.129Z,58.70
2018-05-26T10:34:35.569Z,58.60
2018-05-26T10:37:03.917Z,58.80
2018-05-26T10:39:32.269Z,58.50
2018-05-26T10:42:01.375Z,58.50
2018-05-26T10:44:29.743Z,58.40
2018-05-26T10:46:58.850Z,58.40
2018-05-26T10:49:27.942Z,57.30
2018-05-26T10:51:57.192Z,54.30
2018-05-26T10:54:25.550Z,54.30
2018-05-26T10:56:54.634Z,54.40
2018-05-26T10:59:23.018Z,54.20
2018-05-26T11:01:51.393Z,55.70
2018-05-26T11:04:19.784Z,51.50
2018-05-26T11:06:48.169Z,53.20
2018-05-26T11:09:16.580Z,54.50
2018-05-26T11:11:45.134Z,52.90
2018-05-26T11:14:13.467Z,52.20
2018-05-26T11:16:42.583Z,50.20
2018-05-26T11:19:10.930Z,50.20
2018-05-26T11:21:39.369Z,49.20
2018-05-26T11:24:07.930Z,50.70
2018-05-26T11:26:36.128Z,49.60
2018-05-26T11:29:04.566Z,47.80
2018-05-26T11:31:32.883Z,49.00
2018-05-26T11:34:01.278Z,47.30
2018-05-26T11:36:29.594Z,50.00
2018-05-26T11:38:58.740Z,50.10
2018-05-26T11:41:27.127Z,50.00
2018-05-26T11:43:55.499Z,49.20
2018-05-26T11:46:23.882Z,49.50
2018-05-26T11:48:52.249Z,47.20
2018-05-26T11:51:20.830Z,48.20
2018-05-26T11:53:49.203Z,45.00
2018-05-26T11:56:17.584Z,42.90
2018-05-26T11:58:45.920Z,43.30
2018-05-26T12:01:14.443Z,44.10
2018-05-26T12:03:42.846Z,45.80
2018-05-26T12:06:11.321Z,45.30
2018-05-26T12:08:39.690Z,44.90
2018-05-26T12:11:08.225Z,43.50
2018-05-26T12:13:36.546Z,44.20
2018-05-26T12:16:04.934Z,44.30
2018-05-26T12:18:33.322Z,41.90
2018-05-26T12:21:01.707Z,42.30
2018-05-26T12:23:30.115Z,43.30
2018-05-26T12:25:58.496Z,42.20
2018-05-26T12:28:26.845Z,43.40
2018-05-26T12:30:55.483Z,43.40
2018-05-26T12:33:24.066Z,41.40
2018-05-26T12:35:53.167Z,41.00
2018-05-26T12:38:22.395Z,41.30
2018-05-26T12:40:50.746Z,41.30
2018-05-26T12:43:19.160Z,41.90
2018-05-26T12:45:47.644Z,39.90
2018-05-26T12:48:15.970Z,41.80
2018-05-26T12:50:44.503Z,42.80
2018-05-26T12:53:13.695Z,40.30
2018-05-26T12:55:42.087Z,40.30
2018-05-26T12:58:10.559Z,38.80
2018-05-26T13:00:38.942Z,39.90
2018-05-26T13:03:07.394Z,40.50
2018-05-26T13:05:35.731Z,41.50
2018-05-26T13:08:04.182Z,41.50
2018-05-26T13:10:32.629Z,39.90
2018-05-26T13:13:00.947Z,39.70
2018-05-26T13:15:29.356Z,41.20
2018-05-26T13:17:57.704Z,38.70
2018-05-26T13:20:26.144Z,40.00
2018-05-26T13:22:55.254Z,39.40
2018-05-26T13:25:23.768Z,39.40
2018-05-26T13:27:52.254Z,40.00
2018-05-26T13:30:20.567Z,38.60
2018-05-26T13:32:48.938Z,37.90
2018-05-26T13:35:17.290Z,38.40
2018-05-26T13:37:45.722Z,39.40
2018-05-26T13:40:14.848Z,41.10
2018-05-26T13:42:43.269Z,41.10
2018-05-26T13:45:11.810Z,40.90
2018-05-26T13:47:40.187Z,40.50
2018-05-26T13:50:08.573Z,39.40
2018-05-26T13:52:37.017Z,37.70
2018-05-26T13:55:05.363Z,40.10
2018-05-26T13:57:33.669Z,41.50
2018-05-26T14:00:02.010Z,42.30
2018-05-26T14:02:30.470Z,42.90
2018-05-26T14:04:58.847Z,43.80
2018-05-26T14:07:27.318Z,44.80
2018-05-26T14:09:55.707Z,43.70
2018-05-26T14:12:24.061Z,43.60
2018-05-26T14:14:52.411Z,44.00
2018-05-26T14:17:20.787Z,41.40
2018-05-26T14:19:49.263Z,42.90
2018-05-26T14:22:17.625Z,41.90
2018-05-26T14:24:45.986Z,39.50
2018-05-26T14:27:14.354Z,41.10
2018-05-26T14:29:42.736Z,41.30
2018-05-26T14:32:11.074Z,40.50
2018-05-26T14:34:39.655Z,37.40
2018-05-26T14:37:08.074Z,39.80
2018-05-26T14:39:36.426Z,40.20
2018-05-26T14:42:05.568Z,39.10
2018-05-26T14:44:33.890Z,39.10
2018-05-26T14:47:02.306Z,40.00
2018-05-26T14:49:30.654Z,38.40
2018-05-26T14:51:59.405Z,38.80
2018-05-26T14:54:27.730Z,38.10
2018-05-26T14:56:56.935Z,38.30
2018-05-26T14:59:26.042Z,37.40
2018-05-26T15:01:54.391Z,37.30
2018-05-26T15:04:22.821Z,39.00
2018-05-26T15:06:51.156Z,39.90
2018-05-26T15:09:19.584Z,37.80
2018-05-26T15:11:47.948Z,37.80
2018-05-26T15:14:16.328Z,38.70
2018-05-26T15:16:44.677Z,39.40
2018-05-26T15:19:14.034Z,38.10
2018-05-26T15:21:42.399Z,38.10
2018-05-26T15:24:10.768Z,39.80
2018-05-26T15:26:39.131Z,39.80
2018-05-26T15:29:08.251Z,38.90
2018-05-26T15:31:36.652Z,38.90
2018-05-26T15:34:05.725Z,37.60
2018-05-26T15:36:34.061Z,37.50
2018-05-26T15:39:02.422Z,36.80
2018-05-26T15:41:30.766Z,38.40
2018-05-26T15:43:59.130Z,37.20
2018-05-26T15:46:27.695Z,37.30
2018-05-26T15:48:56.895Z,37.70
2018-05-26T15:51:26.144Z,38.00
2018-05-26T15:53:54.516Z,38.00
2018-05-26T15:56:22.882Z,38.40
2018-05-26T15:58:51.279Z,39.60
2018-05-26T16:01:19.666Z,39.40
2018-05-26T16:03:48.014Z,40.80
2018-05-26T16:06:16.414Z,41.70
2018-05-26T16:08:44.776Z,42.60
2018-05-26T16:11:13.159Z,42.80
2018-05-26T16:13:41.481Z,42.80
2018-05-26T16:16:09.844Z,43.60
2018-05-26T16:18:38.260Z,41.60
2018-05-26T16:21:07.365Z,40.00
2018-05-26T16:23:36.490Z,40.00
2018-05-26T16:26:04.941Z,39.90
2018-05-26T16:28:34.063Z,39.30
2018-05-26T16:31:02.401Z,39.30
2018-05-26T16:33:30.802Z,37.80
2018-05-26T16:35:59.918Z,36.80
2018-05-26T16:38:28.331Z,36.60
2018-05-26T16:40:56.864Z,36.30
2018-05-26T16:43:26.049Z,36.00
2018-05-26T16:45:55.190Z,37.40
2018-05-26T16:48:23.601Z,37.20
2018-05-26T16:50:51.998Z,35.70
2018-05-26T16:53:21.139Z,36.80
2018-05-26T16:55:49.517Z,36.10
2018-05-26T16:58:17.871Z,36.10
2018-05-26T17:00:46.407Z,35.50
2018-05-26T17:03:14.998Z,35.70
2018-05-26T17:05:44.093Z,36.00
2018-05-26T17:08:12.663Z,35.60
2018-05-26T17:10:40.994Z,34.40
2018-05-26T17:13:09.368Z,35.10
2018-05-26T17:15:37.739Z,35.20
2018-05-26T17:18:06.112Z,34.70
2018-05-26T17:20:34.556Z,35.80
2018-05-26T17:23:02.918Z,35.90
2018-05-26T17:25:31.449Z,36.70
2018-05-26T17:27:59.846Z,38.00
2018-05-26T17:30:29.654Z,40.10
2018-05-26T17:32:58.011Z,39.30
2018-05-26T17:35:26.472Z,39.40
2018-05-26T17:37:54.837Z,40.30
2018-05-26T17:40:23.178Z,41.20
2018-05-26T17:42:53.022Z,42.40
2018-05-26T17:45:21.374Z,42.40
2018-05-26T17:47:49.737Z,43.00
2018-05-26T17:50:18.296Z,42.80
2018-05-26T17:52:46.650Z,42.90
2018-05-26T17:55:15.134Z,43.20
2018-05-26T17:57:43.506Z,43.30
2018-05-26T18:00:11.871Z,43.10
2018-05-26T18:02:40.297Z,42.70
2018-05-26T18:05:08.643Z,41.80
2018-05-26T18:07:37.240Z,41.50
2018-05-26T18:10:05.588Z,41.30
2018-05-26T18:12:34.696Z,40.90
2018-05-26T18:15:03.157Z,40.80
2018-05-26T18:17:31.462Z,40.90
2018-05-26T18:19:59.792Z,41.90
2018-05-26T18:22:28.254Z,42.80
2018-05-26T18:24:56.604Z,43.90
2018-05-26T18:27:25.123Z,44.40
2018-05-26T18:29:53.512Z,44.80
2018-05-26T18:32:21.868Z,45.30
2018-05-26T18:34:50.214Z,45.60
2018-05-26T18:37:18.570Z,45.80
2018-05-26T18:39:47.053Z,46.10
2018-05-26T18:42:16.176Z,46.50
2018-05-26T18:44:44.522Z,46.50
2018-05-26T18:47:14.357Z,46.50
2018-05-26T18:49:42.721Z,46.50
2018-05-26T18:52:11.069Z,47.50
2018-05-26T18:54:39.447Z,48.40
2018-05-26T18:57:07.802Z,49.00
2018-05-26T18:59:36.219Z,49.70
2018-05-26T19:02:04.626Z,51.60
2018-05-26T19:04:32.978Z,52.40
2018-05-26T19:07:01.482Z,52.20
2018-05-26T19:09:29.841Z,51.70
2018-05-26T19:11:58.173Z,52.30
2018-05-26T19:14:26.518Z,52.40
2018-05-26T19:16:54.867Z,53.30
2018-05-26T19:19:23.218Z,54.10
2018-05-26T19:21:51.565Z,54.60
2018-05-26T19:24:19.926Z,55.40
2018-05-26T19:26:49.063Z,56.80
2018-05-26T19:29:17.379Z,56.80
2018-05-26T19:31:45.729Z,57.30
2018-05-26T19:34:14.086Z,58.10
2018-05-26T19:36:42.450Z,58.50
2018-05-26T19:39:10.810Z,59.10
2018-05-26T19:41:39.950Z,60.70
2018-05-26T19:44:08.290Z,60.10
2018-05-26T19:46:37.415Z,60.10
2018-05-26T19:49:05.826Z,60.10
2018-05-26T19:51:34.182Z,60.30
2018-05-26T19:54:02.510Z,60.70
2018-05-26T19:56:31.646Z,61.60
2018-05-26T19:58:59.998Z,61.20
2018-05-26T20:01:29.131Z,61.90
2018-05-26T20:03:57.519Z,61.80
2018-05-26T20:06:25.858Z,61.80
2018-05-26T20:08:54.970Z,62.40
2018-05-26T20:11:23.362Z,62.30
2018-05-26T20:13:51.703Z,62.20
2018-05-26T20:16:20.044Z,62.40
2018-05-26T20:18:48.505Z,62.90
2018-05-26T20:21:16.986Z,63.10
2018-05-26T20:23:45.357Z,63.50
2018-05-26T20:26:13.713Z,63.50
2018-05-26T20:28:43.055Z,63.60
2018-05-26T20:31:11.438Z,63.50
2018-05-26T20:33:39.818Z,63.40
2018-05-26T20:36:08.152Z,63.50
2018-05-26T20:38:37.257Z,64.20
2018-05-26T20:41:05.602Z,64.00
2018-05-26T20:43:33.968Z,64.40
2018-05-26T20:46:02.509Z,64.20
2018-05-26T20:48:30.915Z,64.20
2018-05-26T20:50:59.286Z,64.50
2018-05-26T20:53:27.659Z,64.90
2018-05-26T20:55:56.024Z,65.10
2018-05-26T20:58:24.429Z,65.60
2018-05-26T21:00:52.916Z,65.80
2018-05-26T21:03:21.264Z,66.20
2018-05-26T21:05:49.659Z,66.60
2018-05-26T21:08:18.007Z,66.90
2018-05-26T21:10:47.112Z,67.70
2018-05-26T21:13:15.488Z,67.60
2018-05-26T21:15:44.658Z,68.70
2018-05-26T21:18:12.990Z,68.60
2018-05-26T21:20:41.383Z,69.10
2018-05-26T21:23:09.722Z,69.30
2018-05-26T21:25:38.062Z,69.80
2018-05-26T21:28:06.586Z,70.20
2018-05-26T21:30:35.706Z,71.00
2018-05-26T21:33:04.095Z,71.00
2018-05-26T21:35:32.465Z,71.50
2018-05-26T21:38:00.809Z,71.90
2018-05-26T21:40:29.232Z,72.30
2018-05-26T21:42:57.612Z,72.80
2018-05-26T21:45:25.941Z,74.00
2018-05-26T21:47:55.089Z,74.90
2018-05-26T21:50:23.441Z,74.70
2018-05-26T21:52:51.835Z,74.70
2018-05-26T21:55:20.395Z,75.30
2018-05-26T21:57:49.570Z,76.30
2018-05-26T22:00:17.927Z,76.20
2018-05-26T22:02:46.333Z,76.50
2018-05-26T22:05:15.455Z,77.10
2018-05-26T22:07:43.850Z,77.10
2018-05-26T22:10:12.216Z,77.50
2018-05-26T22:12:40.574Z,78.00
2018-05-26T22:15:09.778Z,79.40
2018-05-26T22:17:38.953Z,80.10
2018-05-26T22:20:07.496Z,80.00
2018-05-26T22:22:35.836Z,80.90
2018-05-26T22:25:04.951Z,82.20
2018-05-26T22:27:33.356Z,82.10
2018-05-26T22:30:01.815Z,83.00
2018-05-26T22:32:30.203Z,83.60
2018-05-26T22:34:58.539Z,84.40
2018-05-26T22:37:27.669Z,86.50
2018-05-26T22:39:56.821Z,86.40
2018-05-26T22:42:25.159Z,87.10
2018-05-26T22:44:54.441Z,88.00
2018-05-26T22:47:22.787Z,89.00
2018-05-26T22:49:51.207Z,90.40
2018-05-26T22:52:19.541Z,90.70
2018-05-26T22:54:47.989Z,91.20
2018-05-26T22:57:16.375Z,91.50
2018-05-26T22:59:44.830Z,91.70
2018-05-26T23:02:13.173Z,92.10
2018-05-26T23:04:42.282Z,92.60
2018-05-26T23:07:10.629Z,92.60
2018-05-26T23:09:38.971Z,93.20
2018-05-26T23:12:07.313Z,93.40
2018-05-26T23:14:36.471Z,94.10
2018-05-26T23:17:04.914Z,94.00
2018-05-26T23:19:33.254Z,94.20
2018-05-26T23:22:01.599Z,94.90
2018-05-26T23:24:29.938Z,95.20
2018-05-26T23:26:58.298Z,95.40
2018-05-26T23:29:26.721Z,95.60
2018-05-26T23:31:55.070Z,95.60
2018-05-26T23:34:24.262Z,95.70
2018-05-26T23:36:53.355Z,96.00
2018-05-26T23:39:22.459Z,96.20
2018-05-26T23:41:51.574Z,96.30
2018-05-26T23:44:19.955Z,96.20
2018-05-26T23:46:48.343Z,96.50
2018-05-26T23:49:16.678Z,96.80
2018-05-26T23:51:45.781Z,96.90
2018-05-26T23:54:14.898Z,97.00
2018-05-26T23:56:43.244Z,97.00
2018-05-26T23:59:11.620Z,97.20
